sensor_id;sensor_type;location;lat;lon;timestamp;pressure;altitude;pressure_sealevel;temperature;humidity
13348;BME280;6743;49.934;9.138;2023-04-05T00:00:52;101217.88;;;3.06;100.00
13348;BME280;6743;49.934;9.138;2023-04-05T00:03:18;101221.28;;;3.08;100.00
13348;BME280;6743;49.934;9.138;2023-04-05T00:05:45;101225.59;;;3.09;100.00
13348;BME280;6743;49.934;9.138;2023-04-05T00:08:14;101228.28;;;3.08;100.00
13348;BME280;6743;49.934;9.138;2023-04-05T00:10:48;101211.06;;;3.04;100.00
13348;BME280;6743;49.934;9.138;2023-04-05T00:13:14;101209.47;;;3.01;100.00
13348;BME280;6743;49.934;9.138;2023-04-05T00:15:41;101205.84;;;3.04;100.00
13348;BME280;6743;49.934;9.138;2023-04-05T00:18:07;101201.69;;;3.00;100.00
13348;BME280;6743;49.934;9.138;2023-04-05T00:20:33;101193.19;;;2.96;100.00
13348;BME280;6743;49.934;9.138;2023-04-05T00:23:02;101199.28;;;2.97;100.00
13348;BME280;6743;49.934;9.138;2023-04-05T00:25:30;101189.91;;;2.93;100.00
13348;BME280;6743;49.934;9.138;2023-04-05T00:27:56;101188.97;;;2.94;100.00
13348;BME280;6743;49.934;9.138;2023-04-05T00:30:22;101179.63;;;2.90;100.00
13348;BME280;6743;49.934;9.138;2023-04-05T00:32:49;101190.81;;;2.92;100.00
13348;BME280;6743;49.934;9.138;2023-04-05T00:35:16;101185.78;;;2.89;100.00
13348;BME280;6743;49.934;9.138;2023-04-05T00:37:42;101181.56;;;2.86;100.00
13348;BME280;6743;49.934;9.138;2023-04-05T00:40:09;101182.59;;;2.84;100.00
13348;BME280;6743;49.934;9.138;2023-04-05T00:42:35;101177.91;;;2.74;100.00
13348;BME280;6743;49.934;9.138;2023-04-05T00:45:01;101181.38;;;2.75;100.00
13348;BME280;6743;49.934;9.138;2023-04-05T00:47:27;101184.25;;;2.70;100.00
13348;BME280;6743;49.934;9.138;2023-04-05T00:49:53;101188.09;;;2.65;100.00
13348;BME280;6743;49.934;9.138;2023-04-05T00:52:19;101176.97;;;2.61;100.00
13348;BME280;6743;49.934;9.138;2023-04-05T00:54:48;101185.91;;;2.57;100.00
13348;BME280;6743;49.934;9.138;2023-04-05T00:57:15;101180.88;;;2.54;100.00
13348;BME280;6743;49.934;9.138;2023-04-05T00:59:41;101185.38;;;2.52;100.00
13348;BME280;6743;49.934;9.138;2023-04-05T01:02:12;101175.72;;;2.53;100.00
13348;BME280;6743;49.934;9.138;2023-04-05T01:04:43;101178.63;;;2.48;100.00
13348;BME280;6743;49.934;9.138;2023-04-05T01:07:23;101172.72;;;2.45;100.00
13348;BME280;6743;49.934;9.138;2023-04-05T01:09:55;101169.16;;;2.46;100.00
13348;BME280;6743;49.934;9.138;2023-04-05T01:12:23;101175.25;;;2.46;100.00
13348;BME280;6743;49.934;9.138;2023-04-05T01:14:54;101168.50;;;2.42;100.00
13348;BME280;6743;49.934;9.138;2023-04-05T01:17:22;101168.00;;;2.35;100.00
13348;BME280;6743;49.934;9.138;2023-04-05T01:19:49;101159.78;;;2.27;100.00
13348;BME280;6743;49.934;9.138;2023-04-05T01:25:31;101156.09;;;2.16;100.00
13348;BME280;6743;49.934;9.138;2023-04-05T01:28:22;101151.97;;;2.12;100.00
13348;BME280;6743;49.934;9.138;2023-04-05T01:31:05;101153.06;;;2.08;100.00
13348;BME280;6743;49.934;9.138;2023-04-05T01:33:34;101146.41;;;2.02;100.00
13348;BME280;6743;49.934;9.138;2023-04-05T01:36:09;101144.09;;;1.97;100.00
13348;BME280;6743;49.934;9.138;2023-04-05T01:38:42;101145.09;;;1.95;100.00
13348;BME280;6743;49.934;9.138;2023-04-05T01:41:11;101146.69;;;1.97;100.00
13348;BME280;6743;49.934;9.138;2023-04-05T01:43:37;101140.69;;;1.95;100.00
13348;BME280;6743;49.934;9.138;2023-04-05T01:46:03;101144.25;;;1.94;100.00
13348;BME280;6743;49.934;9.138;2023-04-05T01:48:29;101139.38;;;1.88;100.00
13348;BME280;6743;49.934;9.138;2023-04-05T01:50:56;101145.78;;;1.83;100.00
13348;BME280;6743;49.934;9.138;2023-04-05T01:53:21;101156.13;;;1.70;100.00
13348;BME280;6743;49.934;9.138;2023-04-05T01:55:47;101156.03;;;1.72;100.00
13348;BME280;6743;49.934;9.138;2023-04-05T01:58:14;101149.78;;;1.74;100.00
13348;BME280;6743;49.934;9.138;2023-04-05T02:00:39;101142.75;;;1.75;100.00
13348;BME280;6743;49.934;9.138;2023-04-05T02:03:06;101142.84;;;1.73;100.00
13348;BME280;6743;49.934;9.138;2023-04-05T02:05:32;101139.50;;;1.71;100.00
13348;BME280;6743;49.934;9.138;2023-04-05T02:07:58;101146.56;;;1.69;100.00
13348;BME280;6743;49.934;9.138;2023-04-05T02:10:25;101145.66;;;1.70;100.00
13348;BME280;6743;49.934;9.138;2023-04-05T02:12:51;101131.87;;;1.67;100.00
13348;BME280;6743;49.934;9.138;2023-04-05T02:15:17;101136.13;;;1.69;100.00
13348;BME280;6743;49.934;9.138;2023-04-05T02:17:42;101137.03;;;1.68;100.00
13348;BME280;6743;49.934;9.138;2023-04-05T02:20:11;101133.09;;;1.61;100.00
13348;BME280;6743;49.934;9.138;2023-04-05T02:22:38;101136.03;;;1.55;100.00
13348;BME280;6743;49.934;9.138;2023-04-05T02:25:05;101140.69;;;1.50;100.00
13348;BME280;6743;49.934;9.138;2023-04-05T02:27:33;101141.97;;;1.43;100.00
13348;BME280;6743;49.934;9.138;2023-04-05T02:29:59;101128.31;;;1.38;100.00
13348;BME280;6743;49.934;9.138;2023-04-05T02:32:25;101128.31;;;1.38;100.00
13348;BME280;6743;49.934;9.138;2023-04-05T02:34:51;101127.12;;;1.28;100.00
13348;BME280;6743;49.934;9.138;2023-04-05T02:37:18;101134.03;;;1.29;100.00
13348;BME280;6743;49.934;9.138;2023-04-05T02:39:44;101134.03;;;1.29;100.00
13348;BME280;6743;49.934;9.138;2023-04-05T02:42:10;101132.69;;;1.22;100.00
13348;BME280;6743;49.934;9.138;2023-04-05T02:44:36;101132.00;;;1.18;100.00
13348;BME280;6743;49.934;9.138;2023-04-05T02:47:02;101130.34;;;1.17;100.00
13348;BME280;6743;49.934;9.138;2023-04-05T02:49:28;101133.03;;;1.15;100.00
13348;BME280;6743;49.934;9.138;2023-04-05T02:51:54;101132.34;;;1.12;100.00
13348;BME280;6743;49.934;9.138;2023-04-05T02:54:22;101130.81;;;1.08;100.00
13348;BME280;6743;49.934;9.138;2023-04-05T02:56:48;101130.31;;;1.01;100.00
13348;BME280;6743;49.934;9.138;2023-04-05T02:59:14;101135.63;;;1.00;100.00
13348;BME280;6743;49.934;9.138;2023-04-05T03:01:42;101142.59;;;0.99;100.00
13348;BME280;6743;49.934;9.138;2023-04-05T03:04:08;101135.53;;;1.01;100.00
13348;BME280;6743;49.934;9.138;2023-04-05T03:06:36;101132.84;;;1.03;100.00
13348;BME280;6743;49.934;9.138;2023-04-05T03:09:03;101131.09;;;1.03;100.00
13348;BME280;6743;49.934;9.138;2023-04-05T03:11:30;101137.12;;;1.04;100.00
13348;BME280;6743;49.934;9.138;2023-04-05T03:13:56;101115.37;;;0.88;100.00
13348;BME280;6743;49.934;9.138;2023-04-05T03:16:22;101132.50;;;0.93;100.00
13348;BME280;6743;49.934;9.138;2023-04-05T03:18:48;101126.69;;;0.88;100.00
13348;BME280;6743;49.934;9.138;2023-04-05T03:21:15;101127.75;;;0.84;100.00
13348;BME280;6743;49.934;9.138;2023-04-05T03:23:42;101126.31;;;0.78;100.00
13348;BME280;6743;49.934;9.138;2023-04-05T03:26:11;101125.63;;;0.75;100.00
13348;BME280;6743;49.934;9.138;2023-04-05T03:28:39;101127.41;;;0.74;100.00
13348;BME280;6743;49.934;9.138;2023-04-05T03:31:09;101127.47;;;0.73;100.00
13348;BME280;6743;49.934;9.138;2023-04-05T03:33:35;101119.78;;;0.70;100.00
13348;BME280;6743;49.934;9.138;2023-04-05T03:36:01;101118.94;;;0.69;100.00
13348;BME280;6743;49.934;9.138;2023-04-05T03:38:27;101119.13;;;0.66;100.00
13348;BME280;6743;49.934;9.138;2023-04-05T03:40:53;101120.91;;;0.66;100.00
13348;BME280;6743;49.934;9.138;2023-04-05T03:43:19;101120.06;;;0.65;100.00
13348;BME280;6743;49.934;9.138;2023-04-05T03:45:46;101118.75;;;0.57;100.00
13348;BME280;6743;49.934;9.138;2023-04-05T03:48:12;101126.84;;;0.52;100.00
13348;BME280;6743;49.934;9.138;2023-04-05T03:50:38;101121.87;;;0.48;100.00
13348;BME280;6743;49.934;9.138;2023-04-05T03:53:04;101120.31;;;0.44;100.00
13348;BME280;6743;49.934;9.138;2023-04-05T03:55:30;101121.16;;;0.44;100.00
13348;BME280;6743;49.934;9.138;2023-04-05T03:57:56;101119.47;;;0.43;100.00
13348;BME280;6743;49.934;9.138;2023-04-05T04:00:22;101129.16;;;0.41;100.00
13348;BME280;6743;49.934;9.138;2023-04-05T04:02:49;101119.78;;;0.37;100.00
13348;BME280;6743;49.934;9.138;2023-04-05T04:05:16;101119.88;;;0.35;100.00
13348;BME280;6743;49.934;9.138;2023-04-05T04:07:43;101105.31;;;0.31;100.00
13348;BME280;6743;49.934;9.138;2023-04-05T04:10:11;101108.06;;;0.28;100.00
13348;BME280;6743;49.934;9.138;2023-04-05T04:12:37;101105.53;;;0.27;100.00
13348;BME280;6743;49.934;9.138;2023-04-05T04:15:04;101108.37;;;0.22;100.00
13348;BME280;6743;49.934;9.138;2023-04-05T04:17:32;101114.59;;;0.20;100.00
13348;BME280;6743;49.934;9.138;2023-04-05T04:19:59;101108.75;;;0.15;100.00
13348;BME280;6743;49.934;9.138;2023-04-05T04:22:26;101120.88;;;0.16;100.00
13348;BME280;6743;49.934;9.138;2023-04-05T04:24:57;101116.69;;;0.13;100.00
13348;BME280;6743;49.934;9.138;2023-04-05T04:27:27;101118.44;;;0.13;100.00
13348;BME280;6743;49.934;9.138;2023-04-05T04:29:53;101111.53;;;0.12;100.00
13348;BME280;6743;49.934;9.138;2023-04-05T04:32:27;101114.22;;;0.10;100.00
13348;BME280;6743;49.934;9.138;2023-04-05T04:35:13;101117.66;;;0.11;100.00
13348;BME280;6743;49.934;9.138;2023-04-05T04:37:43;101123.88;;;0.08;100.00
13348;BME280;6743;49.934;9.138;2023-04-05T04:40:11;101123.88;;;0.08;100.00
13348;BME280;6743;49.934;9.138;2023-04-05T04:42:42;101111.16;;;0.02;100.00
13348;BME280;6743;49.934;9.138;2023-04-05T04:45:11;101096.50;;;-0.01;100.00
13348;BME280;6743;49.934;9.138;2023-04-05T04:47:37;101103.25;;;0.04;100.00
13348;BME280;6743;49.934;9.138;2023-04-05T04:50:04;101111.06;;;0.04;100.00
13348;BME280;6743;49.934;9.138;2023-04-05T04:52:33;101098.16;;;0.00;100.00
13348;BME280;6743;49.934;9.138;2023-04-05T04:54:59;101111.84;;;0.06;100.00
13348;BME280;6743;49.934;9.138;2023-04-05T04:57:27;101111.84;;;0.06;100.00
13348;BME280;6743;49.934;9.138;2023-04-05T04:59:52;101104.22;;;0.01;100.00
13348;BME280;6743;49.934;9.138;2023-04-05T05:02:22;101113.00;;;0.00;100.00
13348;BME280;6743;49.934;9.138;2023-04-05T05:04:48;101106.94;;;-0.01;100.00
13348;BME280;6743;49.934;9.138;2023-04-05T05:07:14;101118.34;;;-0.03;100.00
13348;BME280;6743;49.934;9.138;2023-04-05T05:09:42;101120.19;;;-0.05;100.00
13348;BME280;6743;49.934;9.138;2023-04-05T05:12:08;101116.75;;;-0.06;100.00
13348;BME280;6743;49.934;9.138;2023-04-05T05:14:34;101121.09;;;-0.06;100.00
13348;BME280;6743;49.934;9.138;2023-04-05T05:17:00;101117.66;;;-0.07;100.00
13348;BME280;6743;49.934;9.138;2023-04-05T05:19:26;101107.47;;;-0.11;100.00
13348;BME280;6743;49.934;9.138;2023-04-05T05:21:53;101115.81;;;-0.05;100.00
13348;BME280;6743;49.934;9.138;2023-04-05T05:24:19;101127.16;;;-0.06;100.00
13348;BME280;6743;49.934;9.138;2023-04-05T05:26:46;101124.66;;;-0.07;100.00
13348;BME280;6743;49.934;9.138;2023-04-05T05:29:12;101118.81;;;-0.12;100.00
13348;BME280;6743;49.934;9.138;2023-04-05T05:31:38;101119.66;;;-0.12;100.00
13348;BME280;6743;49.934;9.138;2023-04-05T05:34:04;101130.03;;;-0.10;100.00
13348;BME280;6743;49.934;9.138;2023-04-05T05:36:31;101124.81;;;-0.10;100.00
13348;BME280;6743;49.934;9.138;2023-04-05T05:38:57;101124.03;;;-0.12;100.00
13348;BME280;6743;49.934;9.138;2023-04-05T05:41:23;101122.25;;;-0.12;100.00
13348;BME280;6743;49.934;9.138;2023-04-05T05:43:50;101119.66;;;-0.12;100.00
13348;BME280;6743;49.934;9.138;2023-04-05T05:46:19;101123.09;;;-0.11;100.00
13348;BME280;6743;49.934;9.138;2023-04-05T05:48:45;101116.28;;;-0.14;100.00
13348;BME280;6743;49.934;9.138;2023-04-05T05:51:11;101118.50;;;-0.06;100.00
13348;BME280;6743;49.934;9.138;2023-04-05T05:53:37;101119.44;;;-0.07;100.00
13348;BME280;6743;49.934;9.138;2023-04-05T05:56:04;101125.28;;;-0.02;100.00
13348;BME280;6743;49.934;9.138;2023-04-05T05:58:31;101127.81;;;-0.01;100.00
13348;BME280;6743;49.934;9.138;2023-04-05T06:00:58;101132.00;;;0.02;100.00
13348;BME280;6743;49.934;9.138;2023-04-05T06:03:24;101131.87;;;0.05;100.00
13348;BME280;6743;49.934;9.138;2023-04-05T06:05:51;101136.91;;;0.08;100.00
13348;BME280;6743;49.934;9.138;2023-04-05T06:08:17;101139.38;;;0.11;100.00
13348;BME280;6743;49.934;9.138;2023-04-05T06:10:43;101131.38;;;0.14;100.00
13348;BME280;6743;49.934;9.138;2023-04-05T06:13:09;101141.53;;;0.20;100.00
13348;BME280;6743;49.934;9.138;2023-04-05T06:15:35;101134.41;;;0.24;100.00
13348;BME280;6743;49.934;9.138;2023-04-05T06:18:02;101135.91;;;0.28;100.00
13348;BME280;6743;49.934;9.138;2023-04-05T06:20:28;101136.53;;;0.33;100.00
13348;BME280;6743;49.934;9.138;2023-04-05T06:22:54;101141.53;;;0.37;100.00
13348;BME280;6743;49.934;9.138;2023-04-05T06:25:20;101141.38;;;0.41;100.00
13348;BME280;6743;49.934;9.138;2023-04-05T06:27:46;101137.59;;;0.46;100.00
13348;BME280;6743;49.934;9.138;2023-04-05T06:30:13;101141.66;;;0.52;100.00
13348;BME280;6743;49.934;9.138;2023-04-05T06:32:40;101144.00;;;0.56;100.00
13348;BME280;6743;49.934;9.138;2023-04-05T06:35:07;101137.66;;;0.62;100.00
13348;BME280;6743;49.934;9.138;2023-04-05T06:37:33;101131.19;;;0.69;100.00
13348;BME280;6743;49.934;9.138;2023-04-05T06:39:59;101133.47;;;0.75;100.00
13348;BME280;6743;49.934;9.138;2023-04-05T06:42:25;101134.06;;;0.80;100.00
13348;BME280;6743;49.934;9.138;2023-04-05T06:44:51;101126.06;;;0.83;100.00
13348;BME280;6743;49.934;9.138;2023-04-05T06:47:17;101129.38;;;0.87;100.00
13348;BME280;6743;49.934;9.138;2023-04-05T06:49:43;101127.41;;;0.90;100.00
13348;BME280;6743;49.934;9.138;2023-04-05T06:52:10;101124.56;;;0.95;100.00
13348;BME280;6743;49.934;9.138;2023-04-05T06:54:36;101130.38;;;1.00;100.00
13348;BME280;6743;49.934;9.138;2023-04-05T06:57:03;101124.91;;;1.04;100.00
13348;BME280;6743;49.934;9.138;2023-04-05T06:59:28;101126.38;;;1.10;100.00
13348;BME280;6743;49.934;9.138;2023-04-05T07:01:55;101126.19;;;1.13;100.00
13348;BME280;6743;49.934;9.138;2023-04-05T07:04:21;101125.09;;;1.17;100.00
13348;BME280;6743;49.934;9.138;2023-04-05T07:06:47;101125.78;;;1.21;100.00
13348;BME280;6743;49.934;9.138;2023-04-05T07:09:13;101130.72;;;1.25;100.00
13348;BME280;6743;49.934;9.138;2023-04-05T07:11:39;101134.81;;;1.31;100.00
13348;BME280;6743;49.934;9.138;2023-04-05T07:14:05;101124.94;;;1.36;100.00
13348;BME280;6743;49.934;9.138;2023-04-05T07:16:31;101099.38;;;1.25;100.00
13348;BME280;6743;49.934;9.138;2023-04-05T07:18:57;101122.75;;;1.44;100.00
13348;BME280;6743;49.934;9.138;2023-04-05T07:21:23;101122.56;;;1.47;100.00
13348;BME280;6743;49.934;9.138;2023-04-05T07:23:49;101115.47;;;1.49;100.00
13348;BME280;6743;49.934;9.138;2023-04-05T07:26:18;101108.03;;;1.57;100.00
13348;BME280;6743;49.934;9.138;2023-04-05T07:28:44;101114.78;;;1.61;100.00
13348;BME280;6743;49.934;9.138;2023-04-05T07:31:13;101111.81;;;1.67;100.00
13348;BME280;6743;49.934;9.138;2023-04-05T07:33:40;101114.00;;;1.75;100.00
13348;BME280;6743;49.934;9.138;2023-04-05T07:36:07;101110.38;;;1.77;100.00
13348;BME280;6743;49.934;9.138;2023-04-05T07:38:33;101113.56;;;1.82;100.00
13348;BME280;6743;49.934;9.138;2023-04-05T07:40:59;101110.66;;;1.87;100.00
13348;BME280;6743;49.934;9.138;2023-04-05T07:43:25;101112.09;;;1.92;100.00
13348;BME280;6743;49.934;9.138;2023-04-05T07:45:59;101107.59;;;1.94;100.00
13348;BME280;6743;49.934;9.138;2023-04-05T07:48:25;101115.88;;;2.03;100.00
13348;BME280;6743;49.934;9.138;2023-04-05T07:50:51;101105.16;;;2.07;100.00
13348;BME280;6743;49.934;9.138;2023-04-05T07:53:18;101109.16;;;2.13;100.00
13348;BME280;6743;49.934;9.138;2023-04-05T07:55:44;101108.88;;;2.17;100.00
13348;BME280;6743;49.934;9.138;2023-04-05T07:58:10;101107.69;;;2.23;100.00
13348;BME280;6743;49.934;9.138;2023-04-05T08:00:37;101102.28;;;2.26;100.00
13348;BME280;6743;49.934;9.138;2023-04-05T08:03:03;101109.75;;;2.32;100.00
13348;BME280;6743;49.934;9.138;2023-04-05T08:05:29;101107.69;;;2.37;100.00
13348;BME280;6743;49.934;9.138;2023-04-05T08:07:55;101115.19;;;2.43;100.00
13348;BME280;6743;49.934;9.138;2023-04-05T08:10:22;101106.22;;;2.47;100.00
13348;BME280;6743;49.934;9.138;2023-04-05T08:12:48;101111.19;;;2.52;100.00
13348;BME280;6743;49.934;9.138;2023-04-05T08:15:14;101107.34;;;2.57;100.00
13348;BME280;6743;49.934;9.138;2023-04-05T08:17:41;101101.72;;;2.63;100.00
13348;BME280;6743;49.934;9.138;2023-04-05T08:20:08;101100.31;;;2.72;100.00
13348;BME280;6743;49.934;9.138;2023-04-05T08:22:34;101104.16;;;2.81;100.00
13348;BME280;6743;49.934;9.138;2023-04-05T08:25:00;101100.22;;;2.88;100.00
13348;BME280;6743;49.934;9.138;2023-04-05T08:27:26;101095.53;;;2.93;100.00
13348;BME280;6743;49.934;9.138;2023-04-05T08:29:52;101098.53;;;3.01;100.00
13348;BME280;6743;49.934;9.138;2023-04-05T08:32:18;101093.75;;;3.07;100.00
13348;BME280;6743;49.934;9.138;2023-04-05T08:34:45;101096.72;;;3.15;100.00
13348;BME280;6743;49.934;9.138;2023-04-05T08:37:10;101093.72;;;3.22;100.00
13348;BME280;6743;49.934;9.138;2023-04-05T08:39:36;101087.31;;;3.26;100.00
13348;BME280;6743;49.934;9.138;2023-04-05T08:42:07;101085.16;;;3.32;100.00
13348;BME280;6743;49.934;9.138;2023-04-05T08:44:36;101085.50;;;3.40;100.00
13348;BME280;6743;49.934;9.138;2023-04-05T08:47:04;101080.59;;;3.48;100.00
13348;BME280;6743;49.934;9.138;2023-04-05T08:49:30;101082.00;;;3.54;100.00
13348;BME280;6743;49.934;9.138;2023-04-05T08:51:59;101079.81;;;3.61;100.00
13348;BME280;6743;49.934;9.138;2023-04-05T08:54:26;101081.94;;;3.68;100.00
13348;BME280;6743;49.934;9.138;2023-04-05T08:56:52;101079.12;;;3.71;100.00
13348;BME280;6743;49.934;9.138;2023-04-05T08:59:19;101084.50;;;3.82;100.00
13348;BME280;6743;49.934;9.138;2023-04-05T09:01:46;101079.69;;;3.89;100.00
13348;BME280;6743;49.934;9.138;2023-04-05T09:04:19;101067.28;;;3.91;100.00
13348;BME280;6743;49.934;9.138;2023-04-05T09:06:46;101075.50;;;3.99;100.00
13348;BME280;6743;49.934;9.138;2023-04-05T09:09:15;101073.31;;;4.06;100.00
13348;BME280;6743;49.934;9.138;2023-04-05T09:11:42;101070.16;;;4.13;100.00
13348;BME280;6743;49.934;9.138;2023-04-05T09:14:08;101069.75;;;4.19;100.00
13348;BME280;6743;49.934;9.138;2023-04-05T09:16:36;101062.38;;;4.24;100.00
13348;BME280;6743;49.934;9.138;2023-04-05T09:19:03;101059.44;;;4.29;100.00
13348;BME280;6743;49.934;9.138;2023-04-05T09:21:29;101067.03;;;4.33;100.00
13348;BME280;6743;49.934;9.138;2023-04-05T09:23:55;101065.66;;;4.41;100.00
13348;BME280;6743;49.934;9.138;2023-04-05T09:26:23;101058.94;;;4.49;100.00
13348;BME280;6743;49.934;9.138;2023-04-05T09:28:49;101057.56;;;4.56;100.00
13348;BME280;6743;49.934;9.138;2023-04-05T09:31:29;101055.53;;;4.60;100.00
13348;BME280;6743;49.934;9.138;2023-04-05T09:33:57;101060.47;;;4.64;100.00
13348;BME280;6743;49.934;9.138;2023-04-05T09:36:23;101052.59;;;4.64;100.00
13348;BME280;6743;49.934;9.138;2023-04-05T09:38:49;101056.38;;;4.73;100.00
13348;BME280;6743;49.934;9.138;2023-04-05T09:41:15;101049.12;;;4.77;100.00
13348;BME280;6743;49.934;9.138;2023-04-05T09:43:41;101043.53;;;4.81;100.00
13348;BME280;6743;49.934;9.138;2023-04-05T09:46:27;101056.22;;;4.87;100.00
13348;BME280;6743;49.934;9.138;2023-04-05T09:48:54;101055.06;;;4.91;100.00
13348;BME280;6743;49.934;9.138;2023-04-05T09:51:21;101059.16;;;4.95;100.00
13348;BME280;6743;49.934;9.138;2023-04-05T09:53:56;101052.72;;;4.99;100.00
13348;BME280;6743;49.934;9.138;2023-04-05T09:56:23;101054.41;;;5.00;100.00
13348;BME280;6743;49.934;9.138;2023-04-05T09:58:50;101054.81;;;5.07;100.00
13348;BME280;6743;49.934;9.138;2023-04-05T10:01:17;101052.06;;;5.08;100.00
13348;BME280;6743;49.934;9.138;2023-04-05T10:03:47;101049.56;;;5.07;100.00
13348;BME280;6743;49.934;9.138;2023-04-05T10:06:15;101060.87;;;5.20;100.00
13348;BME280;6743;49.934;9.138;2023-04-05T10:08:41;101057.69;;;5.28;100.00
13348;BME280;6743;49.934;9.138;2023-04-05T10:11:07;101061.66;;;5.33;100.00
13348;BME280;6743;49.934;9.138;2023-04-05T10:13:35;101054.16;;;5.40;100.00
13348;BME280;6743;49.934;9.138;2023-04-05T10:16:05;101055.53;;;5.45;98.19
13348;BME280;6743;49.934;9.138;2023-04-05T10:18:39;101052.88;;;5.45;97.27
13348;BME280;6743;49.934;9.138;2023-04-05T10:21:10;101047.16;;;5.51;98.66
13348;BME280;6743;49.934;9.138;2023-04-05T10:23:36;101040.50;;;5.59;99.32
13348;BME280;6743;49.934;9.138;2023-04-05T10:26:09;101036.66;;;5.63;100.00
13348;BME280;6743;49.934;9.138;2023-04-05T10:28:42;101044.09;;;5.69;100.00
13348;BME280;6743;49.934;9.138;2023-04-05T10:31:18;101039.69;;;5.69;98.44
13348;BME280;6743;49.934;9.138;2023-04-05T10:33:54;101032.53;;;5.71;100.00
13348;BME280;6743;49.934;9.138;2023-04-05T10:36:32;101026.19;;;5.74;100.00
13348;BME280;6743;49.934;9.138;2023-04-05T10:39:06;101020.69;;;5.77;100.00
13348;BME280;6743;49.934;9.138;2023-04-05T10:41:40;101021.34;;;5.91;100.00
13348;BME280;6743;49.934;9.138;2023-04-05T10:44:09;101023.63;;;5.96;100.00
13348;BME280;6743;49.934;9.138;2023-04-05T10:46:39;101021.38;;;6.03;100.00
13348;BME280;6743;49.934;9.138;2023-04-05T10:49:11;101016.00;;;6.04;100.00
13348;BME280;6743;49.934;9.138;2023-04-05T10:51:42;101022.00;;;6.06;100.00
13348;BME280;6743;49.934;9.138;2023-04-05T10:54:09;101020.78;;;6.10;96.48
13348;BME280;6743;49.934;9.138;2023-04-05T10:56:36;101014.69;;;6.10;94.99
13348;BME280;6743;49.934;9.138;2023-04-05T10:59:02;101016.97;;;6.14;94.16
13348;BME280;6743;49.934;9.138;2023-04-05T11:01:30;101003.44;;;6.08;94.36
13348;BME280;6743;49.934;9.138;2023-04-05T11:04:10;101011.13;;;6.22;99.67
13348;BME280;6743;49.934;9.138;2023-04-05T11:06:36;101008.38;;;6.46;100.00
13348;BME280;6743;49.934;9.138;2023-04-05T11:09:10;101002.59;;;6.52;100.00
13348;BME280;6743;49.934;9.138;2023-04-05T11:11:38;101005.97;;;6.54;97.36
13348;BME280;6743;49.934;9.138;2023-04-05T11:14:17;101007.28;;;6.59;100.00
13348;BME280;6743;49.934;9.138;2023-04-05T11:16:45;100993.13;;;6.60;100.00
13348;BME280;6743;49.934;9.138;2023-04-05T11:19:15;101001.78;;;6.62;99.25
13348;BME280;6743;49.934;9.138;2023-04-05T11:21:41;101001.91;;;6.61;96.07
13348;BME280;6743;49.934;9.138;2023-04-05T11:24:10;101005.09;;;6.64;95.04
13348;BME280;6743;49.934;9.138;2023-04-05T11:27:00;100994.69;;;6.74;94.39
13348;BME280;6743;49.934;9.138;2023-04-05T11:29:47;101007.97;;;6.95;92.15
13348;BME280;6743;49.934;9.138;2023-04-05T11:32:14;101008.78;;;6.95;91.44
13348;BME280;6743;49.934;9.138;2023-04-05T11:34:44;100995.84;;;6.92;91.15
13348;BME280;6743;49.934;9.138;2023-04-05T11:37:22;100991.56;;;6.91;94.89
13348;BME280;6743;49.934;9.138;2023-04-05T11:39:47;100983.75;;;6.90;92.92
13348;BME280;6743;49.934;9.138;2023-04-05T11:42:14;100988.66;;;6.94;91.18
13348;BME280;6743;49.934;9.138;2023-04-05T11:44:45;100983.25;;;6.96;90.70
13348;BME280;6743;49.934;9.138;2023-04-05T11:47:12;100976.31;;;6.95;89.36
13348;BME280;6743;49.934;9.138;2023-04-05T11:49:41;100969.34;;;6.94;90.35
13348;BME280;6743;49.934;9.138;2023-04-05T11:52:12;100963.56;;;7.00;89.78
13348;BME280;6743;49.934;9.138;2023-04-05T11:54:39;100972.66;;;7.07;90.86
13348;BME280;6743;49.934;9.138;2023-04-05T11:57:11;100972.66;;;7.07;87.87
13348;BME280;6743;49.934;9.138;2023-04-05T11:59:37;100957.31;;;7.12;89.45
13348;BME280;6743;49.934;9.138;2023-04-05T12:02:04;100961.94;;;7.20;88.84
13348;BME280;6743;49.934;9.138;2023-04-05T12:04:32;100966.97;;;7.23;87.18
13348;BME280;6743;49.934;9.138;2023-04-05T12:07:15;100961.56;;;7.24;89.80
13348;BME280;6743;49.934;9.138;2023-04-05T12:12:37;100958.56;;;7.29;91.21
13348;BME280;6743;49.934;9.138;2023-04-05T12:15:04;100948.31;;;7.35;91.74
13348;BME280;6743;49.934;9.138;2023-04-05T12:17:46;100951.16;;;7.43;93.43
13348;BME280;6743;49.934;9.138;2023-04-05T12:20:15;100952.56;;;7.47;92.62
13348;BME280;6743;49.934;9.138;2023-04-05T12:22:43;100941.19;;;7.47;88.58
13348;BME280;6743;49.934;9.138;2023-04-05T12:25:10;100951.25;;;7.53;86.43
13348;BME280;6743;49.934;9.138;2023-04-05T12:27:38;100932.44;;;7.46;84.12
13348;BME280;6743;49.934;9.138;2023-04-05T12:30:10;100941.66;;;7.52;83.42
13348;BME280;6743;49.934;9.138;2023-04-05T12:32:43;100926.31;;;7.46;84.06
13348;BME280;6743;49.934;9.138;2023-04-05T12:35:10;100910.59;;;7.44;89.50
13348;BME280;6743;49.934;9.138;2023-04-05T12:37:38;100912.13;;;7.68;93.01
13348;BME280;6743;49.934;9.138;2023-04-05T12:40:06;100914.97;;;7.76;89.32
13348;BME280;6743;49.934;9.138;2023-04-05T12:42:33;100912.06;;;7.79;87.31
13348;BME280;6743;49.934;9.138;2023-04-05T12:45:04;100909.16;;;7.82;89.06
13348;BME280;6743;49.934;9.138;2023-04-05T12:47:34;100907.22;;;7.84;85.47
13348;BME280;6743;49.934;9.138;2023-04-05T12:50:12;100915.22;;;7.94;89.51
13348;BME280;6743;49.934;9.138;2023-04-05T12:52:38;100899.59;;;7.90;85.94
13348;BME280;6743;49.934;9.138;2023-04-05T12:55:16;100898.41;;;7.95;86.12
13348;BME280;6743;49.934;9.138;2023-04-05T12:57:42;100894.81;;;8.05;83.67
13348;BME280;6743;49.934;9.138;2023-04-05T13:00:09;100894.28;;;8.11;79.24
13348;BME280;6743;49.934;9.138;2023-04-05T13:02:36;100898.91;;;8.19;78.40
13348;BME280;6743;49.934;9.138;2023-04-05T13:05:02;100887.78;;;8.15;78.96
13348;BME280;6743;49.934;9.138;2023-04-05T13:07:28;100892.22;;;8.15;78.40
13348;BME280;6743;49.934;9.138;2023-04-05T13:09:53;100887.19;;;8.12;78.67
13348;BME280;6743;49.934;9.138;2023-04-05T13:12:20;100897.25;;;8.27;74.38